sensor_id;sensor_type;location;lat;lon;timestamp;pressure;altitude;pressure_sealevel;temperature
38114;BMP180;23926;53.222;6.354;2024-03-23T00:54:35;100732.00;;;8.20
38114;BMP180;23926;53.222;6.354;2024-03-23T00:57:01;100750.00;;;8.10
38114;BMP180;23926;53.222;6.354;2024-03-23T00:59:26;100737.00;;;8.10
38114;BMP180;23926;53.222;6.354;2024-03-23T01:01:56;100735.00;;;8.10
38114;BMP180;23926;53.222;6.354;2024-03-23T01:04:21;100720.00;;;8.10
38114;BMP180;23926;53.222;6.354;2024-03-23T01:06:47;100726.00;;;8.10
38114;BMP180;23926;53.222;6.354;2024-03-23T01:09:12;100705.00;;;8.00
38114;BMP180;23926;53.222;6.354;2024-03-23T01:11:38;100708.00;;;8.00
38114;BMP180;23926;53.222;6.354;2024-03-23T01:14:04;100692.00;;;8.00
38114;BMP180;23926;53.222;6.354;2024-03-23T01:16:29;100701.00;;;8.10
38114;BMP180;23926;53.222;6.354;2024-03-23T01:18:54;100700.00;;;8.00
38114;BMP180;23926;53.222;6.354;2024-03-23T01:21:20;100705.00;;;8.00
38114;BMP180;23926;53.222;6.354;2024-03-23T01:23:45;100683.00;;;8.00
38114;BMP180;23926;53.222;6.354;2024-03-23T01:26:11;100689.00;;;8.00
38114;BMP180;23926;53.222;6.354;2024-03-23T01:28:36;100684.00;;;8.00
38114;BMP180;23926;53.222;6.354;2024-03-23T01:31:02;100670.00;;;7.90
38114;BMP180;23926;53.222;6.354;2024-03-23T01:33:27;100683.00;;;7.80
38114;BMP180;23926;53.222;6.354;2024-03-23T01:35:52;100677.00;;;7.80
38114;BMP180;23926;53.222;6.354;2024-03-23T01:38:18;100673.00;;;7.80
38114;BMP180;23926;53.222;6.354;2024-03-23T01:40:43;100668.00;;;7.70
38114;BMP180;23926;53.222;6.354;2024-03-23T01:43:08;100665.00;;;7.60
38114;BMP180;23926;53.222;6.354;2024-03-23T01:45:34;100661.00;;;7.60
38114;BMP180;23926;53.222;6.354;2024-03-23T01:48:00;100672.00;;;7.60
38114;BMP180;23926;53.222;6.354;2024-03-23T01:50:27;100662.00;;;7.50
38114;BMP180;23926;53.222;6.354;2024-03-23T01:52:53;100663.00;;;7.60
38114;BMP180;23926;53.222;6.354;2024-03-23T01:55:19;100646.00;;;7.50
38114;BMP180;23926;53.222;6.354;2024-03-23T01:57:44;100646.00;;;7.50
38114;BMP180;23926;53.222;6.354;2024-03-23T02:00:10;100643.00;;;7.50
38114;BMP180;23926;53.222;6.354;2024-03-23T02:02:44;100639.00;;;7.50
38114;BMP180;23926;53.222;6.354;2024-03-23T02:05:11;100652.00;;;7.50
38114;BMP180;23926;53.222;6.354;2024-03-23T02:07:38;100637.00;;;7.60
38114;BMP180;23926;53.222;6.354;2024-03-23T02:10:03;100649.00;;;7.60
38114;BMP180;23926;53.222;6.354;2024-03-23T02:12:29;100630.00;;;7.60
38114;BMP180;23926;53.222;6.354;2024-03-23T02:14:54;100617.00;;;7.70
38114;BMP180;23926;53.222;6.354;2024-03-23T02:17:19;100623.00;;;7.70
38114;BMP180;23926;53.222;6.354;2024-03-23T02:19:45;100630.00;;;7.70
38114;BMP180;23926;53.222;6.354;2024-03-23T02:22:11;100614.00;;;7.70
38114;BMP180;23926;53.222;6.354;2024-03-23T02:24:37;100619.00;;;7.70
38114;BMP180;23926;53.222;6.354;2024-03-23T02:27:02;100615.00;;;7.70
38114;BMP180;23926;53.222;6.354;2024-03-23T02:29:28;100607.00;;;7.70
38114;BMP180;23926;53.222;6.354;2024-03-23T02:31:53;100607.00;;;7.70
38114;BMP180;23926;53.222;6.354;2024-03-23T02:34:19;100607.00;;;7.80
38114;BMP180;23926;53.222;6.354;2024-03-23T02:36:44;100612.00;;;7.80
38114;BMP180;23926;53.222;6.354;2024-03-23T02:39:09;100604.00;;;7.80
38114;BMP180;23926;53.222;6.354;2024-03-23T02:41:35;100603.00;;;7.70
38114;BMP180;23926;53.222;6.354;2024-03-23T02:44:01;100607.00;;;7.70
38114;BMP180;23926;53.222;6.354;2024-03-23T02:46:27;100608.00;;;7.70
38114;BMP180;23926;53.222;6.354;2024-03-23T02:48:52;100600.00;;;7.70
38114;BMP180;23926;53.222;6.354;2024-03-23T02:51:17;100587.00;;;7.70
38114;BMP180;23926;53.222;6.354;2024-03-23T02:53:43;100592.00;;;7.70
38114;BMP180;23926;53.222;6.354;2024-03-23T02:56:08;100582.00;;;7.70
38114;BMP180;23926;53.222;6.354;2024-03-23T02:58:34;100577.00;;;7.70
38114;BMP180;23926;53.222;6.354;2024-03-23T03:00:59;100581.00;;;7.60
38114;BMP180;23926;53.222;6.354;2024-03-23T03:03:25;100583.00;;;7.60
38114;BMP180;23926;53.222;6.354;2024-03-23T03:05:56;100572.00;;;7.60
38114;BMP180;23926;53.222;6.354;2024-03-23T03:08:21;100565.00;;;7.60
38114;BMP180;23926;53.222;6.354;2024-03-23T03:10:47;100589.00;;;7.50
38114;BMP180;23926;53.222;6.354;2024-03-23T03:13:12;100578.00;;;7.50
38114;BMP180;23926;53.222;6.354;2024-03-23T03:15:37;100581.00;;;7.50
38114;BMP180;23926;53.222;6.354;2024-03-23T03:18:04;100558.00;;;7.40
38114;BMP180;23926;53.222;6.354;2024-03-23T03:20:30;100571.00;;;7.40
38114;BMP180;23926;53.222;6.354;2024-03-23T03:22:57;100564.00;;;7.30
38114;BMP180;23926;53.222;6.354;2024-03-23T03:25:22;100540.00;;;7.20
38114;BMP180;23926;53.222;6.354;2024-03-23T03:27:47;100549.00;;;7.10
38114;BMP180;23926;53.222;6.354;2024-03-23T03:30:13;100547.00;;;7.00
38114;BMP180;23926;53.222;6.354;2024-03-23T03:32:38;100547.00;;;7.00
38114;BMP180;23926;53.222;6.354;2024-03-23T03:35:04;100552.00;;;7.00
38114;BMP180;23926;53.222;6.354;2024-03-23T03:37:29;100543.00;;;7.00
38114;BMP180;23926;53.222;6.354;2024-03-23T03:39:55;100544.00;;;6.90
38114;BMP180;23926;53.222;6.354;2024-03-23T03:42:20;100539.00;;;7.00
38114;BMP180;23926;53.222;6.354;2024-03-23T03:44:45;100527.00;;;7.00
38114;BMP180;23926;53.222;6.354;2024-03-23T03:47:11;100533.00;;;6.90
38114;BMP180;23926;53.222;6.354;2024-03-23T03:49:36;100537.00;;;6.90
38114;BMP180;23926;53.222;6.354;2024-03-23T03:52:02;100525.00;;;6.80
38114;BMP180;23926;53.222;6.354;2024-03-23T03:54:27;100530.00;;;6.80
38114;BMP180;23926;53.222;6.354;2024-03-23T03:56:53;100536.00;;;6.90
38114;BMP180;23926;53.222;6.354;2024-03-23T03:59:18;100528.00;;;6.80
38114;BMP180;23926;53.222;6.354;2024-03-23T04:01:43;100516.00;;;6.80
38114;BMP180;23926;53.222;6.354;2024-03-23T04:04:09;100531.00;;;6.80
38114;BMP180;23926;53.222;6.354;2024-03-23T04:06:34;100519.00;;;6.80
38114;BMP180;23926;53.222;6.354;2024-03-23T04:09:00;100516.00;;;6.90
38114;BMP180;23926;53.222;6.354;2024-03-23T04:11:26;100518.00;;;6.90
38114;BMP180;23926;53.222;6.354;2024-03-23T04:13:51;100510.00;;;6.80
38114;BMP180;23926;53.222;6.354;2024-03-23T04:16:29;100510.00;;;6.80
38114;BMP180;23926;53.222;6.354;2024-03-23T04:18:55;100508.00;;;6.80
38114;BMP180;23926;53.222;6.354;2024-03-23T04:21:21;100504.00;;;6.80
38114;BMP180;23926;53.222;6.354;2024-03-23T04:23:47;100493.00;;;6.80
38114;BMP180;23926;53.222;6.354;2024-03-23T04:26:12;100508.00;;;6.70
38114;BMP180;23926;53.222;6.354;2024-03-23T04:28:38;100504.00;;;6.80
38114;BMP180;23926;53.222;6.354;2024-03-23T04:31:04;100480.00;;;6.80
38114;BMP180;23926;53.222;6.354;2024-03-23T04:33:29;100500.00;;;6.80
38114;BMP180;23926;53.222;6.354;2024-03-23T04:35:54;100501.00;;;6.80
38114;BMP180;23926;53.222;6.354;2024-03-23T04:38:20;100506.00;;;6.70
38114;BMP180;23926;53.222;6.354;2024-03-23T04:40:54;100500.00;;;6.80
38114;BMP180;23926;53.222;6.354;2024-03-23T04:43:19;100490.00;;;6.70
38114;BMP180;23926;53.222;6.354;2024-03-23T04:45:44;100505.00;;;6.80
38114;BMP180;23926;53.222;6.354;2024-03-23T04:48:10;100498.00;;;6.80
38114;BMP180;23926;53.222;6.354;2024-03-23T04:50:35;100494.00;;;6.70
38114;BMP180;23926;53.222;6.354;2024-03-23T04:53:00;100496.00;;;6.70
38114;BMP180;23926;53.222;6.354;2024-03-23T04:55:26;100481.00;;;6.70
38114;BMP180;23926;53.222;6.354;2024-03-23T04:57:51;100493.00;;;6.60
38114;BMP180;23926;53.222;6.354;2024-03-23T05:00:16;100484.00;;;6.60
38114;BMP180;23926;53.222;6.354;2024-03-23T05:02:43;100491.00;;;6.60
38114;BMP180;23926;53.222;6.354;2024-03-23T05:05:09;100477.00;;;6.60
38114;BMP180;23926;53.222;6.354;2024-03-23T05:07:34;100486.00;;;6.50
38114;BMP180;23926;53.222;6.354;2024-03-23T05:10:00;100489.00;;;6.60
38114;BMP180;23926;53.222;6.354;2024-03-23T05:12:25;100464.00;;;6.60
38114;BMP180;23926;53.222;6.354;2024-03-23T05:14:50;100471.00;;;6.60
38114;BMP180;23926;53.222;6.354;2024-03-23T05:17:16;100471.00;;;6.60
38114;BMP180;23926;53.222;6.354;2024-03-23T05:19:42;100472.00;;;6.60
38114;BMP180;23926;53.222;6.354;2024-03-23T05:22:07;100471.00;;;6.60
38114;BMP180;23926;53.222;6.354;2024-03-23T05:24:32;100466.00;;;6.60
38114;BMP180;23926;53.222;6.354;2024-03-23T05:26:58;100470.00;;;6.70
38114;BMP180;23926;53.222;6.354;2024-03-23T05:29:24;100453.00;;;6.70
38114;BMP180;23926;53.222;6.354;2024-03-23T05:31:51;100483.00;;;6.70
38114;BMP180;23926;53.222;6.354;2024-03-23T05:34:17;100479.00;;;6.80
38114;BMP180;23926;53.222;6.354;2024-03-23T05:36:43;100472.00;;;6.80
38114;BMP180;23926;53.222;6.354;2024-03-23T05:39:08;100478.00;;;6.90
38114;BMP180;23926;53.222;6.354;2024-03-23T05:41:33;100490.00;;;7.00
38114;BMP180;23926;53.222;6.354;2024-03-23T05:44:01;100470.00;;;7.00
38114;BMP180;23926;53.222;6.354;2024-03-23T05:46:26;100492.00;;;7.20
38114;BMP180;23926;53.222;6.354;2024-03-23T05:48:52;100482.00;;;7.30
38114;BMP180;23926;53.222;6.354;2024-03-23T05:51:17;100488.00;;;7.60
38114;BMP180;23926;53.222;6.354;2024-03-23T05:53:43;100484.00;;;7.70
38114;BMP180;23926;53.222;6.354;2024-03-23T05:56:08;100499.00;;;7.90
38114;BMP180;23926;53.222;6.354;2024-03-23T05:58:34;100498.00;;;8.00
38114;BMP180;23926;53.222;6.354;2024-03-23T06:01:00;100505.00;;;8.00
38114;BMP180;23926;53.222;6.354;2024-03-23T06:03:27;100488.00;;;7.90
38114;BMP180;23926;53.222;6.354;2024-03-23T06:05:52;100479.00;;;7.80
38114;BMP180;23926;53.222;6.354;2024-03-23T06:08:21;100466.00;;;7.80
38114;BMP180;23926;53.222;6.354;2024-03-23T06:10:47;100487.00;;;7.70
38114;BMP180;23926;53.222;6.354;2024-03-23T06:13:13;100479.00;;;7.80
38114;BMP180;23926;53.222;6.354;2024-03-23T06:15:39;100485.00;;;7.90
38114;BMP180;23926;53.222;6.354;2024-03-23T06:18:05;100497.00;;;8.10
38114;BMP180;23926;53.222;6.354;2024-03-23T06:20:31;100491.00;;;8.10
38114;BMP180;23926;53.222;6.354;2024-03-23T06:22:57;100461.00;;;8.20
38114;BMP180;23926;53.222;6.354;2024-03-23T06:25:22;100474.00;;;8.20
38114;BMP180;23926;53.222;6.354;2024-03-23T06:27:47;100469.00;;;8.20
38114;BMP180;23926;53.222;6.354;2024-03-23T06:30:13;100485.00;;;8.10
38114;BMP180;23926;53.222;6.354;2024-03-23T06:32:38;100481.00;;;8.00
38114;BMP180;23926;53.222;6.354;2024-03-23T06:35:04;100463.00;;;8.10
38114;BMP180;23926;53.222;6.354;2024-03-23T06:37:34;100465.00;;;8.20
38114;BMP180;23926;53.222;6.354;2024-03-23T06:39:59;100477.00;;;8.60
38114;BMP180;23926;53.222;6.354;2024-03-23T06:42:25;100475.00;;;8.80
38114;BMP180;23926;53.222;6.354;2024-03-23T06:44:50;100472.00;;;9.00
38114;BMP180;23926;53.222;6.354;2024-03-23T06:47:15;100474.00;;;9.00
38114;BMP180;23926;53.222;6.354;2024-03-23T06:49:41;100484.00;;;8.90
38114;BMP180;23926;53.222;6.354;2024-03-23T06:52:06;100468.00;;;8.90
38114;BMP180;23926;53.222;6.354;2024-03-23T06:54:31;100464.00;;;8.90
38114;BMP180;23926;53.222;6.354;2024-03-23T06:56:57;100475.00;;;8.90
38114;BMP180;23926;53.222;6.354;2024-03-23T06:59:22;100476.00;;;9.10
38114;BMP180;23926;53.222;6.354;2024-03-23T07:01:47;100452.00;;;9.30
38114;BMP180;23926;53.222;6.354;2024-03-23T07:04:13;100476.00;;;9.50
38114;BMP180;23926;53.222;6.354;2024-03-23T07:06:45;100481.00;;;9.50
38114;BMP180;23926;53.222;6.354;2024-03-23T07:09:11;100482.00;;;9.50
38114;BMP180;23926;53.222;6.354;2024-03-23T07:11:36;100463.00;;;9.40
38114;BMP180;23926;53.222;6.354;2024-03-23T07:14:02;100476.00;;;9.30
38114;BMP180;23926;53.222;6.354;2024-03-23T07:16:28;100480.00;;;9.10
38114;BMP180;23926;53.222;6.354;2024-03-23T07:18:53;100469.00;;;9.20
38114;BMP180;23926;53.222;6.354;2024-03-23T07:21:19;100472.00;;;9.20
38114;BMP180;23926;53.222;6.354;2024-03-23T07:23:44;100466.00;;;9.30
38114;BMP180;23926;53.222;6.354;2024-03-23T07:26:10;100476.00;;;9.40
38114;BMP180;23926;53.222;6.354;2024-03-23T07:28:35;100464.00;;;9.30
38114;BMP180;23926;53.222;6.354;2024-03-23T07:33:30;100467.00;;;9.20
38114;BMP180;23926;53.222;6.354;2024-03-23T07:35:55;100457.00;;;9.40
38114;BMP180;23926;53.222;6.354;2024-03-23T07:38:21;100450.00;;;9.30
38114;BMP180;23926;53.222;6.354;2024-03-23T07:40:46;100456.00;;;9.20
38114;BMP180;23926;53.222;6.354;2024-03-23T07:43:11;100457.00;;;9.30
38114;BMP180;23926;53.222;6.354;2024-03-23T07:45:37;100451.00;;;9.40
38114;BMP180;23926;53.222;6.354;2024-03-23T07:48:04;100457.00;;;9.50
38114;BMP180;23926;53.222;6.354;2024-03-23T07:50:29;100455.00;;;9.90
38114;BMP180;23926;53.222;6.354;2024-03-23T07:52:54;100458.00;;;10.40
38114;BMP180;23926;53.222;6.354;2024-03-23T07:55:20;100457.00;;;10.30
38114;BMP180;23926;53.222;6.354;2024-03-23T07:57:46;100464.00;;;10.00
38114;BMP180;23926;53.222;6.354;2024-03-23T08:00:12;100463.00;;;9.40
38114;BMP180;23926;53.222;6.354;2024-03-23T08:02:38;100465.00;;;8.70
38114;BMP180;23926;53.222;6.354;2024-03-23T08:05:04;100459.00;;;8.50
38114;BMP180;23926;53.222;6.354;2024-03-23T08:07:29;100448.00;;;8.60
38114;BMP180;23926;53.222;6.354;2024-03-23T08:09:55;100438.00;;;8.40
38114;BMP180;23926;53.222;6.354;2024-03-23T08:12:20;100448.00;;;8.40
38114;BMP180;23926;53.222;6.354;2024-03-23T08:14:45;100442.00;;;8.50
38114;BMP180;23926;53.222;6.354;2024-03-23T08:17:11;100444.00;;;8.60
38114;BMP180;23926;53.222;6.354;2024-03-23T08:19:37;100436.00;;;8.50
38114;BMP180;23926;53.222;6.354;2024-03-23T08:22:02;100443.00;;;8.80
38114;BMP180;23926;53.222;6.354;2024-03-23T08:24:28;100446.00;;;9.00
38114;BMP180;23926;53.222;6.354;2024-03-23T08:26:54;100447.00;;;9.00
38114;BMP180;23926;53.222;6.354;2024-03-23T08:29:19;100448.00;;;9.00
38114;BMP180;23926;53.222;6.354;2024-03-23T08:31:45;100450.00;;;9.00
38114;BMP180;23926;53.222;6.354;2024-03-23T08:34:10;100443.00;;;9.30
38114;BMP180;23926;53.222;6.354;2024-03-23T08:36:36;100426.00;;;9.50
38114;BMP180;23926;53.222;6.354;2024-03-23T08:39:01;100431.00;;;9.40
38114;BMP180;23926;53.222;6.354;2024-03-23T08:41:27;100434.00;;;9.50
38114;BMP180;23926;53.222;6.354;2024-03-23T08:43:52;100430.00;;;9.60
38114;BMP180;23926;53.222;6.354;2024-03-23T08:46:17;100415.00;;;9.80
38114;BMP180;23926;53.222;6.354;2024-03-23T08:48:44;100423.00;;;10.10
38114;BMP180;23926;53.222;6.354;2024-03-23T08:51:15;100424.00;;;10.00
38114;BMP180;23926;53.222;6.354;2024-03-23T08:53:41;100424.00;;;10.20
38114;BMP180;23926;53.222;6.354;2024-03-23T08:56:07;100426.00;;;10.50
38114;BMP180;23926;53.222;6.354;2024-03-23T08:58:33;100415.00;;;10.30
38114;BMP180;23926;53.222;6.354;2024-03-23T09:01:04;100422.00;;;10.00
38114;BMP180;23926;53.222;6.354;2024-03-23T09:03:30;100409.00;;;10.10
38114;BMP180;23926;53.222;6.354;2024-03-23T09:05:56;100409.00;;;10.50
38114;BMP180;23926;53.222;6.354;2024-03-23T09:08:23;100392.00;;;10.60
38114;BMP180;23926;53.222;6.354;2024-03-23T09:10:48;100392.00;;;11.20
38114;BMP180;23926;53.222;6.354;2024-03-23T09:13:14;100418.00;;;11.40
38114;BMP180;23926;53.222;6.354;2024-03-23T09:15:50;100428.00;;;10.80
38114;BMP180;23926;53.222;6.354;2024-03-23T09:18:16;100419.00;;;9.10
38114;BMP180;23926;53.222;6.354;2024-03-23T09:20:41;100408.00;;;8.20
38114;BMP180;23926;53.222;6.354;2024-03-23T09:23:07;100410.00;;;7.90
38114;BMP180;23926;53.222;6.354;2024-03-23T09:25:36;100420.00;;;7.60
38114;BMP180;23926;53.222;6.354;2024-03-23T09:28:01;100404.00;;;7.30
38114;BMP180;23926;53.222;6.354;2024-03-23T09:30:27;100417.00;;;7.20
38114;BMP180;23926;53.222;6.354;2024-03-23T09:32:52;100414.00;;;7.20
38114;BMP180;23926;53.222;6.354;2024-03-23T09:35:17;100425.00;;;7.30
38114;BMP180;23926;53.222;6.354;2024-03-23T09:37:44;100434.00;;;7.50
38114;BMP180;23926;53.222;6.354;2024-03-23T09:40:10;100417.00;;;7.60
38114;BMP180;23926;53.222;6.354;2024-03-23T09:42:37;100422.00;;;7.80
38114;BMP180;23926;53.222;6.354;2024-03-23T09:45:06;100425.00;;;7.80
38114;BMP180;23926;53.222;6.354;2024-03-23T09:47:36;100405.00;;;7.80
38114;BMP180;23926;53.222;6.354;2024-03-23T09:50:03;100423.00;;;8.10
38114;BMP180;23926;53.222;6.354;2024-03-23T09:52:29;100408.00;;;8.30
38114;BMP180;23926;53.222;6.354;2024-03-23T09:54:55;100403.00;;;8.30
38114;BMP180;23926;53.222;6.354;2024-03-23T09:57:20;100409.00;;;8.70
38114;BMP180;23926;53.222;6.354;2024-03-23T09:59:46;100405.00;;;8.70
38114;BMP180;23926;53.222;6.354;2024-03-23T10:02:11;100413.00;;;8.80
38114;BMP180;23926;53.222;6.354;2024-03-23T10:04:42;100391.00;;;8.90
38114;BMP180;23926;53.222;6.354;2024-03-23T10:09:37;100392.00;;;9.60
38114;BMP180;23926;53.222;6.354;2024-03-23T10:12:15;100395.00;;;9.70
38114;BMP180;23926;53.222;6.354;2024-03-23T10:14:41;100402.00;;;9.90
38114;BMP180;23926;53.222;6.354;2024-03-23T10:17:14;100399.00;;;10.30
38114;BMP180;23926;53.222;6.354;2024-03-23T10:19:42;100390.00;;;10.40
38114;BMP180;23926;53.222;6.354;2024-03-23T10:22:09;100398.00;;;10.40
38114;BMP180;23926;53.222;6.354;2024-03-23T10:24:35;100384.00;;;10.30
38114;BMP180;23926;53.222;6.354;2024-03-23T10:27:00;100390.00;;;10.30
38114;BMP180;23926;53.222;6.354;2024-03-23T10:29:26;100383.00;;;10.60
38114;BMP180;23926;53.222;6.354;2024-03-23T10:31:53;100389.00;;;10.60
38114;BMP180;23926;53.222;6.354;2024-03-23T10:34:25;100395.00;;;10.50
38114;BMP180;23926;53.222;6.354;2024-03-23T10:36:53;100390.00;;;10.40
38114;BMP180;23926;53.222;6.354;2024-03-23T10:39:20;100388.00;;;10.60
38114;BMP180;23926;53.222;6.354;2024-03-23T10:41:49;100396.00;;;11.00
38114;BMP180;23926;53.222;6.354;2024-03-23T10:44:17;100387.00;;;11.10
38114;BMP180;23926;53.222;6.354;2024-03-23T10:46:44;100403.00;;;10.90
38114;BMP180;23926;53.222;6.354;2024-03-23T10:49:09;100418.00;;;10.40
38114;BMP180;23926;53.222;6.354;2024-03-23T10:51:34;100410.00;;;9.00
38114;BMP180;23926;53.222;6.354;2024-03-23T10:54:06;100419.00;;;8.40
38114;BMP180;23926;53.222;6.354;2024-03-23T10:56:34;100420.00;;;8.30
38114;BMP180;23926;53.222;6.354;2024-03-23T10:59:02;100415.00;;;8.20
38114;BMP180;23926;53.222;6.354;2024-03-23T11:01:29;100416.00;;;8.60
38114;BMP180;23926;53.222;6.354;2024-03-23T11:03:54;100420.00;;;8.80
38114;BMP180;23926;53.222;6.354;2024-03-23T11:06:38;100409.00;;;8.50
38114;BMP180;23926;53.222;6.354;2024-03-23T11:14:50;100393.00;;;9.30
38114;BMP180;23926;53.222;6.354;2024-03-23T11:17:20;100399.00;;;9.90
38114;BMP180;23926;53.222;6.354;2024-03-23T11:19:58;100413.00;;;10.30
38114;BMP180;23926;53.222;6.354;2024-03-23T11:22:44;100406.00;;;10.90
38114;BMP180;23926;53.222;6.354;2024-03-23T11:25:24;100404.00;;;11.10
38114;BMP180;23926;53.222;6.354;2024-03-23T11:27:54;100398.00;;;11.50
38114;BMP180;23926;53.222;6.354;2024-03-23T11:32:49;100389.00;;;11.80
38114;BMP180;23926;53.222;6.354;2024-03-23T11:35:31;100380.00;;;12.00
38114;BMP180;23926;53.222;6.354;2024-03-23T11:38:10;100392.00;;;11.90
38114;BMP180;23926;53.222;6.354;2024-03-23T11:40:47;100380.00;;;11.70
38114;BMP180;23926;53.222;6.354;2024-03-23T11:43:14;100386.00;;;11.50
38114;BMP180;23926;53.222;6.354;2024-03-23T11:45:45;100379.00;;;11.50
38114;BMP180;23926;53.222;6.354;2024-03-23T11:48:18;100394.00;;;11.40
38114;BMP180;23926;53.222;6.354;2024-03-23T11:50:46;100390.00;;;10.90
38114;BMP180;23926;53.222;6.354;2024-03-23T11:55:42;100381.00;;;10.60
38114;BMP180;23926;53.222;6.354;2024-03-23T11:58:07;100385.00;;;10.60
38114;BMP180;23926;53.222;6.354;2024-03-23T12:00:33;100382.00;;;10.80
38114;BMP180;23926;53.222;6.354;2024-03-23T12:03:02;100393.00;;;10.90
38114;BMP180;23926;53.222;6.354;2024-03-23T12:05:29;100430.00;;;10.80
38114;BMP180;23926;53.222;6.354;2024-03-23T12:07:55;100405.00;;;9.70
38114;BMP180;23926;53.222;6.354;2024-03-23T12:10:20;100407.00;;;8.80
38114;BMP180;23926;53.222;6.354;2024-03-23T12:12:46;100398.00;;;8.70
38114;BMP180;23926;53.222;6.354;2024-03-23T12:15:11;100414.00;;;8.40
38114;BMP180;23926;53.222;6.354;2024-03-23T12:17:38;100385.00;;;8.30
38114;BMP180;23926;53.222;6.354;2024-03-23T12:20:04;100390.00;;;8.70
38114;BMP180;23926;53.222;6.354;2024-03-23T12:22:29;100384.00;;;9.00
38114;BMP180;23926;53.222;6.354;2024-03-23T12:24:55;100385.00;;;9.10
38114;BMP180;23926;53.222;6.354;2024-03-23T12:27:20;100384.00;;;9.30
38114;BMP180;23926;53.222;6.354;2024-03-23T12:29:46;100375.00;;;9.60
38114;BMP180;23926;53.222;6.354;2024-03-23T12:32:12;100371.00;;;10.00
38114;BMP180;23926;53.222;6.354;2024-03-23T12:34:38;100380.00;;;10.30
38114;BMP180;23926;53.222;6.354;2024-03-23T12:37:03;100376.00;;;10.50
38114;BMP180;23926;53.222;6.354;2024-03-23T12:39:29;100381.00;;;10.50
38114;BMP180;23926;53.222;6.354;2024-03-23T12:41:55;100383.00;;;10.20
38114;BMP180;23926;53.222;6.354;2024-03-23T12:44:20;100394.00;;;9.80
38114;BMP180;23926;53.222;6.354;2024-03-23T12:46:46;100387.00;;;9.40
38114;BMP180;23926;53.222;6.354;2024-03-23T12:49:11;100376.00;;;9.40
38114;BMP180;23926;53.222;6.354;2024-03-23T12:51:37;100358.00;;;9.10
38114;BMP180;23926;53.222;6.354;2024-03-23T12:54:03;100351.00;;;9.20
38114;BMP180;23926;53.222;6.354;2024-03-23T12:56:28;100366.00;;;9.40
38114;BMP180;23926;53.222;6.354;2024-03-23T12:58:55;100374.00;;;9.50
38114;BMP180;23926;53.222;6.354;2024-03-23T13:01:25;100375.00;;;9.70
38114;BMP180;23926;53.222;6.354;2024-03-23T13:03:51;100376.00;;;10.00
38114;BMP180;23926;53.222;6.354;2024-03-23T13:06:17;100371.00;;;9.90
38114;BMP180;23926;53.222;6.354;2024-03-23T13:08:46;100369.00;;;10.00
38114;BMP180;23926;53.222;6.354;2024-03-23T13:11:12;100368.00;;;9.40
38114;BMP180;23926;53.222;6.354;2024-03-23T13:13:39;100369.00;;;9.60
38114;BMP180;23926;53.222;6.354;2024-03-23T13:16:05;100373.00;;;9.70
38114;BMP180;23926;53.222;6.354;2024-03-23T13:18:31;100380.00;;;10.10
38114;BMP180;23926;53.222;6.354;2024-03-23T13:20:57;100391.00;;;10.20
38114;BMP180;23926;53.222;6.354;2024-03-23T13:23:23;100379.00;;;10.40
38114;BMP180;23926;53.222;6.354;2024-03-23T13:25:53;100396.00;;;9.90
38114;BMP180;23926;53.222;6.354;2024-03-23T13:28:19;100396.00;;;9.20
38114;BMP180;23926;53.222;6.354;2024-03-23T13:30:54;100397.00;;;9.30
38114;BMP180;23926;53.222;6.354;2024-03-23T13:33:19;100385.00;;;8.90
38114;BMP180;23926;53.222;6.354;2024-03-23T13:35:55;100395.00;;;8.70
38114;BMP180;23926;53.222;6.354;2024-03-23T13:38:21;100384.00;;;8.20
38114;BMP180;23926;53.222;6.354;2024-03-23T13:43:15;100371.00;;;7.90
38114;BMP180;23926;53.222;6.354;2024-03-23T13:45:40;100364.00;;;8.20
38114;BMP180;23926;53.222;6.354;2024-03-23T13:48:06;100376.00;;;8.20
38114;BMP180;23926;53.222;6.354;2024-03-23T13:50:31;100384.00;;;8.20
38114;BMP180;23926;53.222;6.354;2024-03-23T13:52:57;100361.00;;;8.30
38114;BMP180;23926;53.222;6.354;2024-03-23T13:55:22;100380.00;;;8.60
38114;BMP180;23926;53.222;6.354;2024-03-23T13:57:48;100380.00;;;8.70
38114;BMP180;23926;53.222;6.354;2024-03-23T14:00:14;100375.00;;;8.70
38114;BMP180;23926;53.222;6.354;2024-03-23T14:02:40;100383.00;;;8.70
38114;BMP180;23926;53.222;6.354;2024-03-23T14:05:05;100385.00;;;8.70
38114;BMP180;23926;53.222;6.354;2024-03-23T14:07:31;100382.00;;;8.70
38114;BMP180;23926;53.222;6.354;2024-03-23T14:09:56;100357.00;;;8.70
38114;BMP180;23926;53.222;6.354;2024-03-23T14:12:27;100356.00;;;8.50
38114;BMP180;23926;53.222;6.354;2024-03-23T14:14:52;100346.00;;;8.70
38114;BMP180;23926;53.222;6.354;2024-03-23T14:17:19;100360.00;;;8.70
38114;BMP180;23926;53.222;6.354;2024-03-23T14:19:44;100355.00;;;8.90
38114;BMP180;23926;53.222;6.354;2024-03-23T14:22:09;100359.00;;;9.30
38114;BMP180;23926;53.222;6.354;2024-03-23T14:24:35;100358.00;;;9.20
38114;BMP180;23926;53.222;6.354;2024-03-23T14:27:00;100351.00;;;9.50
38114;BMP180;23926;53.222;6.354;2024-03-23T14:29:30;100355.00;;;9.40
38114;BMP180;23926;53.222;6.354;2024-03-23T14:31:55;100358.00;;;9.40
38114;BMP180;23926;53.222;6.354;2024-03-23T14:34:20;100352.00;;;9.50
38114;BMP180;23926;53.222;6.354;2024-03-23T14:36:46;100350.00;;;9.50
38114;BMP180;23926;53.222;6.354;2024-03-23T14:39:11;100345.00;;;9.40
38114;BMP180;23926;53.222;6.354;2024-03-23T14:41:38;100341.00;;;9.30
38114;BMP180;23926;53.222;6.354;2024-03-23T14:44:04;100344.00;;;9.20
38114;BMP180;23926;53.222;6.354;2024-03-23T14:46:29;100323.00;;;9.30
38114;BMP180;23926;53.222;6.354;2024-03-23T14:48:54;100342.00;;;9.60
38114;BMP180;23926;53.222;6.354;2024-03-23T14:51:20;100336.00;;;9.60
38114;BMP180;23926;53.222;6.354;2024-03-23T14:53:47;100350.00;;;9.60
38114;BMP180;23926;53.222;6.354;2024-03-23T14:56:13;100345.00;;;9.80
38114;BMP180;23926;53.222;6.354;2024-03-23T14:58:41;100346.00;;;10.00
38114;BMP180;23926;53.222;6.354;2024-03-23T15:01:08;100338.00;;;10.40
38114;BMP180;23926;53.222;6.354;2024-03-23T15:03:39;100331.00;;;10.40
38114;BMP180;23926;53.222;6.354;2024-03-23T15:06:06;100335.00;;;10.70
38114;BMP180;23926;53.222;6.354;2024-03-23T15:08:31;100341.00;;;10.90
38114;BMP180;23926;53.222;6.354;2024-03-23T15:11:00;100316.00;;;11.10
38114;BMP180;23926;53.222;6.354;2024-03-23T15:13:31;100334.00;;;11.40